Fort Huachuca, AZ (85613)

8:13 PM MST on August 27, 2015 (GMT -0700)
Mountain View Golf | | Change Station
CLOSE
Current Station
Personal Weather Station
Location: Sierra Vista, AZ
Elevation: 4764 ft
Nearby Weather Stations

Elev 4764 ft 31.54 °N, 110.31 °W | Updated 25 minutes ago

Mostly Cloudy
Mostly Cloudy
73.7 °F
Feels Like 76 °F
N
12.0
Wind Variable Wind from East
Gusts 19.0 mph

Today
High -- | Low -- °F
--% Chance of Precip.
Yesterday
High -- | Low -- °F
Precip. -- in
5:53 AM 6:51 PM
Waxing Gibbous, 96% visible
Pressure 29.99 in
Visibility 10.0 miles
Clouds Few 7500 ft
Scattered Clouds 11000 ft
Mostly Cloudy 15000 ft
Heat Index 76 °F
Dew Point 61 °F
Humidity 65%
Rainfall 0.00 in
Snow Depth Not available.
UV 0 out of 12
Pollen 4.10 out of 12
Air Quality Not available.
Flu Activity Not available.
METAR KFHU 280258Z AUTO 03016G22KT 10SM FEW075 SCT110 BKN150 23/15 A3020 RMK AO2 PK WND 02026/34 LTG DSNT NW-N AND SW SLP154 T02290146 53012
Pressure 29.99 in
Visibility 10.0 miles
Clouds Few 7500 ft
Scattered Clouds 11000 ft
Mostly Cloudy 15000 ft
Heat Index 76 °F
Dew Point 61 °F
Humidity 65%
Rainfall 0.00 in
Snow Depth Not available.
UV 0 out of 12
Pollen 4.10 out of 12
Air Quality Not available.
Flu Activity Not available.
METAR KFHU 280258Z AUTO 03016G22KT 10SM FEW075 SCT110 BKN150 23/15 A3020 RMK AO2 PK WND 02026/34 LTG DSNT NW-N AND SW SLP154 T02290146 53012
Nowcast | as of 6:14 PM MST on August 27, 2015

Scattered showers and thunderstorms continue to move slowly toward the south this evening...generally south of a line stretching from around Safford to Sells. A few of these storms are still capable of producing wind gusts to around 45 mph and brief heavy downpours. Rainfall amounts will generally be less than one half inch...although locally heavier amounts are possible.

×

10-Day Weather Forecast

×

Almanac

Astronomy

Aug. 27, 2015 Rise Set
Actual Time
Civil Twilight
Nautical Twilight
Astronomical Twilight
Moon
Length of Visible Light
Length of Day
Tomorrow will be .
, % of the Moon is Illuminated

Today's Extremes

State Highs State Lows

Community

WunderPhotos

Upload Photos

1,850,312 photos uploaded!

WunderBlogs® & News

Nearby

Air Quality

  Air Quality AQ Index Pollutant
Not available.

Snow Depth

Station Depth Elevation

Earthquake Activity

City Distance Mag. Time & Date
Minimum magnitude displayed is 2.5.

Coastal Water Temperatures

Place Temperature

Stations

Nearby Weather Stations

Station Location Temp. Windchill Dew Point Humidity Wind Precip. Elev Updated Type